Time;durP1;ratioP1;P1;durP2;ratioP2;P2;SDS_P1;SDS_P2;PMS_P1;PMS_P2;Temp;Humidity;BMP_temperature;BMP_pressure;BME280_temperature;BME280_humidity;BME280_pressure;Samples;Min_cycle;Max_cycle;Signal;HPM_P1;HPM_P2
2021/01/13 00:01:28;;;;;;;11.60;3.08;;;;;;;1.51;81.97;101308.97;5007527;28;20057;-70
2021/01/13 00:03:54;;;;;;;14.75;3.50;;;;;;;1.47;82.07;101314.88;5011393;28;20119;-71
2021/01/13 00:06:20;;;;;;;19.05;3.63;;;;;;;1.48;82.25;101314.03;5009696;28;20038;-70
2021/01/13 00:08:47;;;;;;;17.15;3.28;;;;;;;1.46;82.20;101324.25;5017355;28;20073;-69
2021/01/13 00:11:14;;;;;;;9.60;2.97;;;;;;;1.45;82.13;101317.38;5007162;28;20046;-70
2021/01/13 00:13:40;;;;;;;13.88;2.70;;;;;;;1.46;82.23;101313.97;5008996;28;20054;-70
2021/01/13 00:16:06;;;;;;;12.00;3.42;;;;;;;1.40;81.97;101319.81;5011425;28;20792;-70
2021/01/13 00:18:32;;;;;;;16.30;3.40;;;;;;;1.38;81.93;101320.59;5008537;28;20480;-70
2021/01/13 00:20:58;;;;;;;17.13;3.53;;;;;;;1.35;82.39;101321.38;5008981;28;20050;-70
2021/01/13 00:23:24;;;;;;;15.95;3.42;;;;;;;1.36;82.16;101322.25;5010472;28;20092;-71
2021/01/13 00:25:51;;;;;;;14.70;3.33;;;;;;;1.35;82.16;101325.63;5016688;28;20046;-70
2021/01/13 00:28:17;;;;;;;16.23;3.28;;;;;;;1.26;81.94;101325.38;5012420;28;20057;-71
2021/01/13 00:30:42;;;;;;;10.80;3.42;;;;;;;1.30;82.22;101316.97;5011363;28;20412;-70
2021/01/13 00:33:08;;;;;;;17.33;3.95;;;;;;;1.29;82.31;101323.78;5011117;28;20111;-70
2021/01/13 00:35:34;;;;;;;17.75;3.60;;;;;;;1.17;82.86;101320.88;5016752;28;20084;-71
2021/01/13 00:38:00;;;;;;;15.88;4.72;;;;;;;1.23;82.80;101324.47;5012818;28;20485;-70
2021/01/13 00:40:26;;;;;;;14.52;3.88;;;;;;;1.25;82.57;101319.38;5012101;28;20713;-70
2021/01/13 00:42:54;;;;;;;15.00;4.30;;;;;;;1.27;82.44;101306.59;5013797;28;20054;-71
2021/01/13 00:45:20;;;;;;;12.35;3.25;;;;;;;1.24;82.81;101308.28;5016527;28;20046;-70
2021/01/13 00:47:50;;;;;;;20.70;4.10;;;;;;;1.24;82.73;101302.28;5014036;28;20512;-71
2021/01/13 00:50:16;;;;;;;13.40;2.88;;;;;;;1.25;82.74;101311.69;5015990;28;20084;-71
2021/01/13 00:52:45;;;;;;;21.33;4.20;;;;;;;1.22;82.93;101312.50;5007653;28;20046;-70
2021/01/13 00:55:11;;;;;;;13.77;3.70;;;;;;;1.27;82.43;101309.16;5010453;28;20060;-70
2021/01/13 00:57:37;;;;;;;15.48;3.90;;;;;;;1.20;82.63;101314.13;5011638;28;20049;-70
2021/01/13 01:00:06;;;;;;;12.90;3.33;;;;;;;1.15;82.67;101323.38;5006011;28;20496;-70
2021/01/13 01:02:32;;;;;;;14.75;3.85;;;;;;;1.21;82.78;101313.31;5006710;28;20533;-71
2021/01/13 01:04:58;;;;;;;11.40;4.20;;;;;;;1.14;82.71;101316.53;5006706;28;20058;-70
2021/01/13 01:07:24;;;;;;;13.85;3.67;;;;;;;1.13;82.82;101314.78;5002081;28;20053;-69
2021/01/13 01:09:50;;;;;;;15.27;3.75;;;;;;;1.10;82.75;101313.84;5005260;28;20077;-70
2021/01/13 01:12:16;;;;;;;14.80;2.97;;;;;;;1.10;82.40;101313.84;4996342;28;20062;-71
2021/01/13 01:14:42;;;;;;;18.50;4.22;;;;;;;1.06;82.42;101315.41;5006549;28;20056;-70
2021/01/13 01:17:12;;;;;;;9.10;3.28;;;;;;;1.04;82.28;101317.94;5004983;28;20647;-70
2021/01/13 01:19:38;;;;;;;12.52;3.47;;;;;;;1.03;82.28;101315.34;5005547;28;20053;-70
2021/01/13 01:22:06;;;;;;;11.27;3.38;;;;;;;1.08;82.50;101317.22;5008071;28;20061;-69
2021/01/13 01:24:32;;;;;;;16.48;4.00;;;;;;;1.10;81.89;101317.25;5009230;28;20477;-70
2021/01/13 01:26:58;;;;;;;17.08;3.67;;;;;;;1.02;82.20;101321.28;5009034;28;20046;-71
2021/01/13 01:29:24;;;;;;;18.52;4.28;;;;;;;1.03;82.30;101325.59;5004684;28;20596;-71
2021/01/13 01:31:50;;;;;;;13.68;2.92;;;;;;;1.07;82.07;101320.59;5008407;28;20632;-70
2021/01/13 01:34:17;;;;;;;16.38;3.80;;;;;;;1.02;82.31;101319.59;4992858;28;20054;-71
2021/01/13 01:36:43;;;;;;;16.13;3.30;;;;;;;1.02;82.37;101317.03;5008821;28;20041;-70
2021/01/13 01:39:09;;;;;;;14.38;4.15;;;;;;;1.01;82.35;101322.97;5006932;28;20575;-70
2021/01/13 01:41:35;;;;;;;13.55;3.13;;;;;;;1.05;82.37;101329.03;5006288;28;20054;-71
2021/01/13 01:44:01;;;;;;;11.73;3.38;;;;;;;1.06;82.10;101324.00;5008486;28;20061;-71
2021/01/13 01:46:30;;;;;;;15.18;4.03;;;;;;;1.12;81.64;101327.53;5008734;28;20133;-71
2021/01/13 01:48:59;;;;;;;14.45;4.18;;;;;;;1.08;81.72;101331.72;5008173;28;20057;-71
2021/01/13 01:51:27;;;;;;;16.05;3.35;;;;;;;1.06;81.99;101335.91;5008410;28;20493;-70
2021/01/13 01:54:13;;;;;;;19.80;3.67;;;;;;;1.00;81.77;101333.19;5008853;28;20064;-70
2021/01/13 01:56:40;;;;;;;18.40;3.47;;;;;;;0.99;82.05;101332.31;5008922;28;20436;-70
2021/01/13 01:59:07;;;;;;;17.20;4.55;;;;;;;0.98;82.39;101332.25;5008070;28;20054;-71
2021/01/13 02:01:38;;;;;;;15.18;3.30;;;;;;;1.00;82.14;101333.19;5004620;28;20141;-69
2021/01/13 02:04:12;;;;;;;18.05;3.63;;;;;;;0.96;82.28;101328.78;5006464;28;20567;-71
2021/01/13 02:07:02;;;;;;;16.50;3.50;;;;;;;0.99;82.21;101340.00;5011430;28;20054;-71
2021/01/13 02:09:29;;;;;;;15.85;4.07;;;;;;;0.90;82.15;101335.47;5011854;28;20049;-71
2021/01/13 02:11:57;;;;;;;13.63;4.82;;;;;;;0.86;82.21;101340.44;5010869;28;20054;-70
2021/01/13 02:14:25;;;;;;;9.57;3.47;;;;;;;0.87;82.45;101332.81;5011633;28;20116;-71
2021/01/13 02:16:53;;;;;;;17.73;3.63;;;;;;;0.85;82.43;101338.72;5007426;28;20046;-71
2021/01/13 02:19:56;;;;;;;19.38;5.15;;;;;;;0.74;82.85;101340.97;4993877;28;20057;-70
2021/01/13 02:22:25;;;;;;;12.18;4.18;;;;;;;0.79;82.92;101344.50;5010353;28;20050;-70
2021/01/13 02:25:46;;;;;;;15.85;3.72;;;;;;;0.77;82.78;101344.47;5006893;28;20056;-70
2021/01/13 02:28:18;;;;;;;16.75;3.67;;;;;;;0.80;82.80;101342.84;5011141;28;20061;-70
2021/01/13 02:31:22;;;;;;;16.55;3.97;;;;;;;0.81;83.01;101349.66;5010082;28;20057;-70
2021/01/13 02:33:52;;;;;;;16.38;4.00;;;;;;;0.86;82.77;101354.13;5008640;28;20046;-70
2021/01/13 02:36:20;;;;;;;17.08;4.35;;;;;;;0.83;82.82;101355.72;5006131;28;20050;-70
2021/01/13 02:38:50;;;;;;;10.82;3.75;;;;;;;0.87;83.04;101350.72;5007662;28;20049;-71
2021/01/13 02:41:18;;;;;;;16.20;4.00;;;;;;;0.85;82.69;101349.81;5009651;28;20096;-71
2021/01/13 02:43:54;;;;;;;19.75;3.53;;;;;;;0.85;82.83;101342.13;5005328;28;20046;-71
2021/01/13 02:46:51;;;;;;;18.50;4.20;;;;;;;0.86;82.90;101350.69;5010362;28;20061;-70
2021/01/13 02:49:24;;;;;;;17.67;3.70;;;;;;;0.87;82.58;101342.19;5010746;28;20074;-70
2021/01/13 02:51:54;;;;;;;14.98;4.13;;;;;;;0.85;82.83;101344.69;5009783;28;20501;-70
2021/01/13 02:54:30;;;;;;;16.00;3.38;;;;;;;0.85;82.92;101346.41;5010258;28;20080;-70
2021/01/13 02:57:06;;;;;;;11.85;3.28;;;;;;;0.82;83.01;101343.72;4997634;28;20062;-71
2021/01/13 02:59:35;;;;;;;11.93;3.60;;;;;;;0.79;83.24;101344.50;5000656;28;20560;-70
2021/01/13 03:02:09;;;;;;;16.00;4.25;;;;;;;0.85;83.16;101349.81;5011191;28;20114;-71
2021/01/13 03:04:35;;;;;;;21.95;3.95;;;;;;;0.90;83.04;101352.50;5010348;28;20069;-70
2021/01/13 03:07:05;;;;;;;14.77;3.85;;;;;;;0.87;83.26;101363.53;5010847;28;20058;-71
2021/01/13 03:09:35;;;;;;;18.15;4.35;;;;;;;0.88;83.45;101367.84;5007879;28;20054;-71
2021/01/13 03:12:01;;;;;;;17.42;4.03;;;;;;;0.93;83.66;101362.84;5010625;28;20050;-71
2021/01/13 03:14:31;;;;;;;11.43;3.60;;;;;;;1.00;83.48;101376.72;5010146;28;20053;-71
2021/01/13 03:17:10;;;;;;;15.98;3.50;;;;;;;1.07;83.48;101376.09;5010722;28;20049;-71
2021/01/13 03:19:49;;;;;;;17.85;4.18;;;;;;;1.13;82.55;101380.53;5010187;28;20097;-71
2021/01/13 03:22:19;;;;;;;13.73;3.65;;;;;;;1.14;82.78;101377.13;5010041;28;20062;-70
2021/01/13 03:24:54;;;;;;;15.73;4.28;;;;;;;1.12;82.45;101378.78;5006371;28;20851;-70
2021/01/13 03:27:23;;;;;;;14.60;3.30;;;;;;;1.06;83.14;101377.78;5007587;28;20497;-70
2021/01/13 03:29:51;;;;;;;24.35;4.85;;;;;;;1.06;83.11;101366.66;5010081;28;20081;-70
2021/01/13 03:32:22;;;;;;;12.82;4.00;;;;;;;1.06;83.16;101364.09;5005761;28;20060;-70
2021/01/13 03:35:08;;;;;;;10.07;3.40;;;;;;;1.04;82.92;101366.63;5008521;28;20049;-71
2021/01/13 03:37:56;;;;;;;18.10;3.95;;;;;;;1.06;83.19;101364.09;5009136;28;20041;-71
2021/01/13 03:40:24;;;;;;;10.88;3.40;;;;;;;1.05;83.07;101357.22;5003244;28;20065;-70
2021/01/13 03:42:52;;;;;;;24.15;5.45;;;;;;;1.08;82.65;101357.31;5003927;28;20046;-71
2021/01/13 03:45:34;;;;;;;11.55;3.92;;;;;;;1.10;82.90;101359.97;5004061;28;20046;-70
2021/01/13 03:48:08;;;;;;;14.02;3.78;;;;;;;1.06;83.43;101364.09;5008911;28;20064;-70
2021/01/13 03:50:41;;;;;;;17.02;4.07;;;;;;;1.05;83.50;101367.47;5009190;28;20049;-70
2021/01/13 03:53:08;;;;;;;14.20;4.70;;;;;;;1.04;83.76;101386.25;5008473;28;20057;-70
2021/01/13 03:55:36;;;;;;;13.20;4.70;;;;;;;1.07;83.77;101384.66;5007526;28;20057;-71
2021/01/13 03:58:42;;;;;;;21.30;5.38;;;;;;;0.95;84.94;101383.41;5005876;28;20076;-70
2021/01/13 04:01:50;;;;;;;17.17;4.75;;;;;;;1.03;85.12;101382.81;5002273;28;20092;-70
2021/01/13 04:04:33;;;;;;;12.48;5.57;;;;;;;1.05;85.27;101375.16;4992921;28;20050;-71
2021/01/13 04:07:00;;;;;;;22.20;5.55;;;;;;;1.05;85.93;101378.59;5009534;28;20406;-70
2021/01/13 04:09:27;;;;;;;24.05;5.57;;;;;;;1.09;86.01;101369.31;5009998;28;20050;-71
2021/01/13 04:12:06;;;;;;;18.02;5.70;;;;;;;1.12;85.97;101374.53;5009954;28;20050;-70
2021/01/13 04:14:45;;;;;;;17.10;4.72;;;;;;;1.22;85.65;101360.28;4994401;28;20531;-70
2021/01/13 04:17:14;;;;;;;18.17;5.90;;;;;;;1.11;85.84;101364.22;5003003;28;20057;-70
2021/01/13 04:19:41;;;;;;;11.23;5.07;;;;;;;1.13;86.21;101358.34;5009780;28;20050;-70
2021/01/13 04:22:08;;;;;;;16.48;5.85;;;;;;;1.14;86.35;101351.53;5010035;28;20057;-71
2021/01/13 04:24:34;;;;;;;20.50;5.85;;;;;;;1.18;86.06;101346.53;5008883;28;20513;-71
2021/01/13 04:27:01;;;;;;;20.45;5.43;;;;;;;1.20;86.12;101362.81;5008612;28;20045;-70
2021/01/13 04:29:27;;;;;;;14.15;5.28;;;;;;;1.22;85.87;101353.50;5009358;28;20060;-71
2021/01/13 04:31:53;;;;;;;16.60;4.95;;;;;;;1.10;86.23;101353.13;5008632;28;20065;-70
2021/01/13 04:34:20;;;;;;;19.25;5.80;;;;;;;0.97;86.78;101353.56;5009407;28;20058;-71
2021/01/13 04:36:50;;;;;;;17.63;6.00;;;;;;;1.01;86.62;101357.97;5008396;28;20050;-70
2021/01/13 04:39:19;;;;;;;13.18;5.55;;;;;;;1.05;86.61;101352.09;5008113;28;20056;-70
2021/01/13 04:41:59;;;;;;;24.85;6.43;;;;;;;1.07;86.42;101356.47;5008564;28;20046;-70
2021/01/13 04:44:31;;;;;;;20.70;6.20;;;;;;;1.10;86.73;101355.69;5004778;28;20080;-70
2021/01/13 04:47:04;;;;;;;15.60;5.82;;;;;;;1.14;86.68;101354.06;5008655;28;20054;-70
2021/01/13 04:49:32;;;;;;;14.68;6.05;;;;;;;1.16;86.77;101344.75;5007849;28;20061;-70
2021/01/13 04:52:04;;;;;;;15.98;5.63;;;;;;;1.14;87.21;101344.72;5009220;28;20058;-70
2021/01/13 04:54:31;;;;;;;15.98;4.50;;;;;;;1.16;87.24;101337.91;5007294;28;20512;-71
2021/01/13 04:57:37;;;;;;;12.77;5.05;;;;;;;1.16;87.24;101335.34;5008381;28;20046;-70
2021/01/13 05:00:11;;;;;;;;;;;;;;;1.23;87.59;101329.59;5004687;28;20058;-69
2021/01/13 05:03:06;;;;;;;13.40;4.85;;;;;;;1.21;87.24;101338.94;5001641;28;19928;-70
2021/01/13 05:05:44;;;;;;;23.27;5.38;;;;;;;1.27;87.16;101327.09;5012182;28;20094;-70
2021/01/13 05:08:26;;;;;;;16.67;4.85;;;;;;;1.21;87.55;101332.94;5004069;28;20060;-70
2021/01/13 05:10:57;;;;;;;13.80;4.70;;;;;;;1.23;87.53;101332.16;5012908;28;20086;-70
2021/01/13 05:13:24;;;;;;;11.75;4.40;;;;;;;1.27;87.84;101333.13;5014483;28;20053;-70
2021/01/13 05:15:55;;;;;;;20.15;4.53;;;;;;;1.22;88.10;101333.00;5013836;28;20080;-71
2021/01/13 05:18:53;;;;;;;24.42;5.80;;;;;;;1.34;87.56;101344.41;5013044;28;20046;-70
2021/01/13 05:21:21;;;;;;;14.85;5.80;;;;;;;1.37;87.53;101347.94;5013153;28;20424;-71
2021/01/13 05:23:50;;;;;;;16.58;5.97;;;;;;;1.39;87.46;101333.47;5011075;28;20112;-70
2021/01/13 05:26:21;;;;;;;21.42;7.03;;;;;;;1.43;87.25;101336.09;5019501;28;20417;-70
2021/01/13 05:29:19;;;;;;;14.60;6.07;;;;;;;1.49;87.17;101326.91;5011351;28;20062;-71
2021/01/13 05:31:46;;;;;;;19.63;5.68;;;;;;;1.46;87.28;101328.50;5019167;28;20455;-69
2021/01/13 05:34:16;;;;;;;18.55;6.15;;;;;;;1.50;87.31;101320.06;5011344;28;20063;-71
2021/01/13 05:36:53;;;;;;;22.95;6.78;;;;;;;1.50;87.42;101323.50;5015083;28;20508;-70
2021/01/13 05:39:23;;;;;;;21.83;7.78;;;;;;;1.50;87.74;101320.06;5017155;28;20441;-70
2021/01/13 05:41:50;;;;;;;20.05;7.60;;;;;;;1.57;87.77;101326.22;5021157;28;20049;-70
2021/01/13 05:44:20;;;;;;;26.40;8.32;;;;;;;1.51;87.76;101315.00;5014578;28;20432;-71
2021/01/13 05:46:48;;;;;;;25.17;9.02;;;;;;;1.64;87.59;101313.63;5022962;28;20041;-70
2021/01/13 05:49:14;;;;;;;18.65;7.97;;;;;;;1.64;87.52;101310.22;5019234;28;20115;-70
2021/01/13 05:51:42;;;;;;;17.77;8.75;;;;;;;1.59;87.55;101322.03;5016620;28;20053;-70
2021/01/13 05:54:13;;;;;;;22.65;9.85;;;;;;;1.61;87.72;101320.38;5012232;28;20508;-71
2021/01/13 05:56:40;;;;;;;20.85;8.88;;;;;;;1.65;87.27;101333.31;5020302;28;20054;-70
2021/01/13 05:59:07;;;;;;;22.52;7.85;;;;;;;1.68;87.26;101337.66;5019054;28;20057;-70
2021/01/13 06:01:43;;;;;;;29.52;8.95;;;;;;;1.66;87.22;101326.47;5012883;28;20061;-69
2021/01/13 06:04:10;;;;;;;29.52;9.57;;;;;;;1.63;87.31;101318.72;5012034;28;20050;-70
2021/01/13 06:06:44;;;;;;;18.63;9.38;;;;;;;1.58;87.41;101315.16;5019779;28;20073;-70
2021/01/13 06:09:12;;;;;;;17.97;9.77;;;;;;;1.59;87.99;101314.31;5015389;28;20050;-70
2021/01/13 06:11:42;;;;;;;22.13;9.15;;;;;;;1.57;87.69;101300.59;5010083;28;20046;-70
2021/01/13 06:14:10;;;;;;;27.63;9.95;;;;;;;1.62;87.52;101304.16;5014421;28;20500;-70
2021/01/13 06:16:37;;;;;;;22.40;8.27;;;;;;;1.62;87.57;101305.00;5011247;28;20497;-70
2021/01/13 06:19:06;;;;;;;23.05;8.45;;;;;;;1.69;86.83;101299.25;5014967;28;20516;-70
2021/01/13 06:21:33;;;;;;;28.75;8.10;;;;;;;1.77;86.98;101298.56;5005072;28;20046;-69
2021/01/13 06:24:11;;;;;;;19.67;8.23;;;;;;;1.70;86.45;101293.25;5017003;28;20050;-70
2021/01/13 06:26:51;;;;;;;28.17;8.75;;;;;;;1.62;86.61;101288.78;5013280;28;20046;-70
2021/01/13 06:29:42;;;;;;;24.50;8.65;;;;;;;1.65;86.87;101293.97;5017505;28;20452;-70
2021/01/13 06:32:19;;;;;;;24.17;8.05;;;;;;;1.67;86.58;101294.88;5014342;28;20527;-70
2021/01/13 06:34:56;;;;;;;19.15;7.07;;;;;;;1.66;86.44;101295.69;5015037;28;20052;-70
2021/01/13 06:37:28;;;;;;;29.40;8.18;;;;;;;1.69;86.14;101296.69;5017082;28;20045;-70
2021/01/13 06:39:56;;;;;;;19.35;6.88;;;;;;;1.73;86.08;101296.75;5014759;28;20054;-71
2021/01/13 06:42:30;;;;;;;19.55;6.60;;;;;;;1.64;86.45;101287.97;5016202;28;20045;-70
2021/01/13 06:44:56;;;;;;;23.13;6.72;;;;;;;1.73;86.20;101286.47;5016218;28;20068;-70
2021/01/13 06:47:23;;;;;;;18.60;7.38;;;;;;;1.56;86.44;101292.03;5019608;28;20568;-70
2021/01/13 06:49:50;;;;;;;26.13;7.60;;;;;;;1.59;86.17;101287.00;5015924;28;20050;-71
2021/01/13 06:52:29;;;;;;;19.35;6.88;;;;;;;1.63;86.19;101286.25;5015313;28;20050;-70
2021/01/13 06:54:57;;;;;;;17.83;6.75;;;;;;;1.68;86.23;101291.50;5016585;28;20181;-70
2021/01/13 06:57:26;;;;;;;19.60;7.10;;;;;;;1.59;86.04;101288.69;5017136;28;20045;-70
2021/01/13 06:59:53;;;;;;;25.50;7.07;;;;;;;1.53;86.33;101282.59;5007873;28;20529;-70
2021/01/13 07:02:29;;;;;;;21.42;7.07;;;;;;;1.54;86.20;101294.56;5012681;28;20056;-71
2021/01/13 07:04:55;;;;;;;18.35;7.00;;;;;;;1.59;86.13;101293.81;5016883;28;20120;-70
2021/01/13 07:07:21;;;;;;;19.58;7.00;;;;;;;1.58;86.04;101294.63;5016448;28;20042;-70
2021/01/13 07:09:49;;;;;;;26.48;6.88;;;;;;;1.59;85.96;101297.25;5017495;28;20084;-70
2021/01/13 07:12:17;;;;;;;27.33;7.50;;;;;;;1.54;86.01;101297.13;5018459;28;20073;-70
2021/01/13 07:14:45;;;;;;;21.88;6.20;;;;;;;1.66;85.85;101296.59;5012889;28;20126;-71
2021/01/13 07:17:15;;;;;;;18.08;6.22;;;;;;;1.64;85.48;101287.97;5016893;28;20049;-70
2021/01/13 07:19:45;;;;;;;18.38;7.28;;;;;;;1.71;85.44;101295.00;5017675;28;20113;-70
2021/01/13 07:22:13;;;;;;;19.23;7.43;;;;;;;1.80;85.78;101299.50;5011114;28;20056;-71
2021/01/13 07:24:41;;;;;;;19.85;6.38;;;;;;;1.73;84.94;101297.63;5016549;28;20072;-70
2021/01/13 07:27:08;;;;;;;23.02;7.13;;;;;;;1.74;84.91;101306.16;5008859;28;20441;-70
2021/01/13 07:29:35;;;;;;;22.83;7.50;;;;;;;1.73;84.67;101297.63;5014097;28;20603;-70
2021/01/13 07:32:03;;;;;;;21.33;7.63;;;;;;;1.80;84.81;101298.63;5007592;28;20892;-70
2021/01/13 07:34:36;;;;;;;19.90;6.55;;;;;;;1.83;84.63;101302.16;5008578;28;20787;-70
2021/01/13 07:37:06;;;;;;;23.15;5.65;;;;;;;1.95;84.82;101300.72;5013544;28;20049;-70
2021/01/13 07:40:13;;;;;;;25.20;7.88;;;;;;;1.81;84.13;101296.13;5013750;28;20049;-69
2021/01/13 07:42:41;;;;;;;12.85;6.10;;;;;;;1.71;84.36;101300.13;4998490;28;20054;-69
2021/01/13 07:45:09;;;;;;;22.73;7.85;;;;;;;1.76;84.65;101302.81;5014680;28;20107;-70
2021/01/13 07:48:08;;;;;;;24.67;8.20;;;;;;;1.78;84.41;101311.41;5008109;28;20120;-70
2021/01/13 07:50:40;;;;;;;18.88;6.80;;;;;;;1.75;84.23;101306.19;4967540;28;20103;-71
2021/01/13 07:53:10;;;;;;;19.35;7.03;;;;;;;1.71;84.75;101304.41;5011883;28;20053;-70
2021/01/13 07:55:42;;;;;;;17.85;7.30;;;;;;;1.63;85.06;101306.75;5015396;28;20171;-70
2021/01/13 07:58:19;;;;;;;18.23;7.05;;;;;;;1.70;84.78;101302.66;5012592;28;20100;-71
2021/01/13 08:00:59;;;;;;;20.17;6.70;;;;;;;1.74;84.35;101309.63;5014495;28;20046;-70
2021/01/13 08:04:06;;;;;;;19.05;6.45;;;;;;;1.66;84.58;101313.66;5014772;28;20398;-71
2021/01/13 08:06:34;;;;;;;17.92;6.97;;;;;;;1.85;84.79;101315.03;5008136;28;20042;-71
2021/01/13 08:09:12;;;;;;;21.35;7.38;;;;;;;1.78;84.35;101306.28;5012135;28;20432;-71
2021/01/13 08:12:15;;;;;;;19.02;7.85;;;;;;;1.88;83.26;101309.97;5011522;28;20115;-70
2021/01/13 08:15:05;;;;;;;22.05;6.88;;;;;;;2.00;83.26;101311.97;5008549;28;20046;-71
2021/01/13 08:17:40;;;;;;;22.00;6.32;;;;;;;1.91;83.31;101311.75;5009164;28;20045;-70
2021/01/13 08:20:25;;;;;;;;;;;;;;;1.95;83.56;101313.53;5009916;28;20849;-70
2021/01/13 08:22:59;;;;;;;20.45;7.00;;;;;;;1.86;83.55;101315.06;5002139;28;19925;-70
2021/01/13 08:25:27;;;;;;;21.13;6.25;;;;;;;2.02;83.54;101315.47;5013871;28;20049;-70
2021/01/13 08:27:56;;;;;;;18.77;7.00;;;;;;;1.90;83.44;101316.00;5011718;28;20428;-70
2021/01/13 08:30:27;;;;;;;31.70;6.95;;;;;;;1.81;83.77;101316.63;5007985;28;20064;-69
2021/01/13 08:32:55;;;;;;;19.83;7.05;;;;;;;1.80;83.92;101314.00;5013647;28;20061;-70
2021/01/13 08:35:32;;;;;;;22.02;7.70;;;;;;;1.77;84.59;101309.69;5004849;28;20045;-68
2021/01/13 08:38:07;;;;;;;20.35;7.40;;;;;;;1.77;84.71;101325.06;5007693;28;20535;-70
2021/01/13 08:40:34;;;;;;;27.65;8.32;;;;;;;1.75;84.52;101326.72;5008989;28;20062;-69
2021/01/13 08:43:09;;;;;;;22.83;7.68;;;;;;;1.69;84.85;101326.56;5015688;28;20096;-70
2021/01/13 08:45:37;;;;;;;21.75;8.43;;;;;;;1.75;85.34;101324.16;5033350;22;20057;-66
2021/01/13 08:48:09;;;;;;;20.40;8.95;;;;;;;1.83;85.06;101321.81;5017927;28;20136;-67
2021/01/13 08:50:36;;;;;;;22.13;9.10;;;;;;;1.93;84.38;101312.66;5021029;28;20048;-67
2021/01/13 08:53:03;;;;;;;23.95;7.78;;;;;;;1.92;84.27;101321.19;5025163;28;20055;-66
2021/01/13 08:55:30;;;;;;;17.40;7.50;;;;;;;1.88;84.41;101314.22;5022929;28;20077;-65
2021/01/13 08:58:04;;;;;;;21.80;7.85;;;;;;;2.02;84.95;101313.75;5018061;28;20054;-66
2021/01/13 09:00:31;;;;;;;24.50;9.18;;;;;;;2.10;84.15;101313.94;5021462;28;20424;-66
2021/01/13 09:03:03;;;;;;;29.92;8.07;;;;;;;2.15;83.31;101316.63;5017905;28;20050;-66
2021/01/13 09:05:30;;;;;;;16.10;7.72;;;;;;;2.07;83.44;101319.00;5029673;28;20052;-65
2021/01/13 09:07:58;;;;;;;17.17;7.55;;;;;;;2.13;84.07;101305.44;5031429;28;20057;-66
2021/01/13 09:10:46;;;;;;;41.33;18.38;;;;;;;3.10;94.53;101317.94;5019146;28;20077;-64
2021/01/13 09:13:41;;;;;;;23.58;11.73;;;;;;;3.92;96.00;101318.63;5019261;28;20041;-64
2021/01/13 09:16:30;;;;;;;33.85;16.40;;;;;;;4.54;92.63;101309.34;5030419;28;20102;-64
2021/01/13 09:18:58;;;;;;;24.30;7.32;;;;;;;4.53;84.82;101311.88;5022548;28;20064;-67
2021/01/13 09:21:29;;;;;;;20.55;8.05;;;;;;;4.10;79.36;101312.06;5024149;28;20049;-70
2021/01/13 09:23:57;;;;;;;22.52;7.22;;;;;;;3.78;80.24;101317.50;5023322;28;20111;-68
2021/01/13 09:26:31;;;;;;;19.10;7.53;;;;;;;3.38;79.58;101318.50;5019133;28;20041;-67
2021/01/13 09:29:02;;;;;;;20.20;7.35;;;;;;;3.20;80.41;101318.13;5015312;28;20054;-66
2021/01/13 09:31:28;;;;;;;18.77;6.45;;;;;;;3.01;80.72;101324.56;5028938;28;20041;-66
2021/01/13 09:33:54;;;;;;;22.33;7.50;;;;;;;3.00;80.83;101318.56;5031090;28;20049;-66
2021/01/13 09:36:20;;;;;;;18.70;7.30;;;;;;;3.02;80.90;101327.19;5025984;28;20072;-66
2021/01/13 09:38:49;;;;;;;18.85;7.68;;;;;;;2.90;81.31;101319.22;5024559;28;20050;-67
2021/01/13 09:41:24;;;;;;;15.85;8.15;;;;;;;2.82;81.88;101328.44;5017368;28;20516;-67
2021/01/13 09:43:50;;;;;;;25.50;8.75;;;;;;;2.87;81.76;101324.28;5020782;28;20472;-67
2021/01/13 09:46:30;;;;;;;16.75;8.00;;;;;;;2.98;82.25;101330.50;5029878;28;20049;-68
2021/01/13 09:48:58;;;;;;;25.00;9.02;;;;;;;3.02;82.63;101328.88;5019382;28;20056;-67
2021/01/13 09:51:25;;;;;;;19.13;7.97;;;;;;;2.99;82.04;101318.56;5023516;28;20056;-66
2021/01/13 09:53:53;;;;;;;24.20;8.90;;;;;;;3.11;82.09;101323.94;5031106;28;20372;-67
2021/01/13 09:56:21;;;;;;;21.88;8.75;;;;;;;3.00;81.42;101316.00;5032812;28;20076;-67
2021/01/13 09:58:51;;;;;;;20.60;8.25;;;;;;;3.02;81.82;101324.63;5024499;28;20054;-67
2021/01/13 10:01:19;;;;;;;24.70;8.75;;;;;;;2.85;81.89;101315.66;5030950;28;20076;-67
2021/01/13 10:03:47;;;;;;;23.33;8.57;;;;;;;2.97;81.80;101318.50;5018139;28;20057;-67
2021/01/13 10:06:15;;;;;;;24.63;8.30;;;;;;;2.97;81.51;101310.78;5029166;28;20115;-67
2021/01/13 10:08:41;;;;;;;20.85;8.48;;;;;;;3.04;82.45;101312.69;5024610;28;20490;-66
2021/01/13 10:11:08;;;;;;;21.92;9.98;;;;;;;3.12;82.34;101315.38;5036386;28;20045;-67
2021/01/13 10:13:37;;;;;;;27.00;8.90;;;;;;;3.20;82.04;101325.84;5037403;28;20056;-67
2021/01/13 10:16:06;;;;;;;24.17;10.23;;;;;;;3.03;81.83;101321.22;5031546;28;20049;-65
2021/01/13 10:18:32;;;;;;;27.38;10.95;;;;;;;3.16;81.88;101319.75;5033167;28;20050;-67
2021/01/13 10:21:00;;;;;;;24.90;10.68;;;;;;;3.22;81.88;101316.47;5038582;28;20053;-67
2021/01/13 10:23:27;;;;;;;26.08;11.55;;;;;;;3.17;82.04;101324.06;5037877;28;20050;-66
2021/01/13 10:26:05;;;;;;;27.30;12.95;;;;;;;3.34;82.70;101320.97;5045002;28;20049;-67
2021/01/13 10:28:31;;;;;;;22.08;11.23;;;;;;;3.38;81.40;101318.50;5026246;28;20057;-66
2021/01/13 10:30:57;;;;;;;27.67;12.35;;;;;;;3.25;80.95;101322.53;5030300;28;20530;-67
2021/01/13 10:33:44;;;;;;;22.02;11.65;;;;;;;3.18;81.11;101317.22;5036281;28;20098;-67
2021/01/13 10:36:35;;;;;;;21.70;12.35;;;;;;;3.24;81.30;101314.78;5034890;28;20508;-67
2021/01/13 10:39:07;;;;;;;25.02;11.90;;;;;;;3.06;81.95;101304.97;5033541;28;20060;-67
2021/01/13 10:41:35;;;;;;;26.20;12.30;;;;;;;3.07;82.13;101294.72;5034951;28;20052;-67
2021/01/13 10:44:07;;;;;;;27.48;12.57;;;;;;;2.92;82.06;101302.13;5039260;28;20053;-67
2021/01/13 10:46:50;;;;;;;27.83;11.45;;;;;;;2.75;82.86;101300.03;5032650;28;20053;-67
2021/01/13 10:49:36;;;;;;;27.77;11.30;;;;;;;2.74;83.41;101288.06;5038707;28;20050;-67
2021/01/13 10:52:05;;;;;;;35.53;13.13;;;;;;;2.87;83.63;101294.31;5039326;28;20057;-67
2021/01/13 10:54:32;;;;;;;25.88;11.15;;;;;;;3.02;82.97;101290.31;5040046;28;20495;-67
2021/01/13 10:57:01;;;;;;;29.65;11.38;;;;;;;3.09;82.67;101284.50;5040576;28;20041;-66
2021/01/13 10:59:28;;;;;;;24.80;12.10;;;;;;;3.06;82.53;101298.13;5038315;28;20118;-66
2021/01/13 11:01:59;;;;;;;20.13;10.93;;;;;;;3.07;82.35;101299.88;5034374;28;20524;-66
2021/01/13 11:04:37;;;;;;;23.80;11.35;;;;;;;3.30;83.00;101286.63;5034919;28;20115;-66
2021/01/13 11:07:09;;;;;;;19.95;10.63;;;;;;;3.37;81.95;101290.19;5039192;28;20050;-67
2021/01/13 11:09:37;;;;;;;23.40;11.02;;;;;;;3.52;81.65;101284.47;5033101;28;20042;-67
2021/01/13 11:12:05;;;;;;;22.05;11.00;;;;;;;3.57;80.82;101285.41;5030718;28;20412;-67
2021/01/13 11:14:46;;;;;;;31.85;10.75;;;;;;;3.73;81.23;101281.41;5037339;28;20053;-66
2021/01/13 11:17:14;;;;;;;27.58;11.95;;;;;;;3.71;80.67;101277.94;5035396;28;20042;-67
2021/01/13 11:19:43;;;;;;;25.25;10.55;;;;;;;3.61;80.36;101276.91;5041340;28;20049;-67
2021/01/13 11:22:10;;;;;;;20.92;11.30;;;;;;;3.58;80.92;101276.84;5038295;28;20099;-66
2021/01/13 11:24:42;;;;;;;23.27;11.38;;;;;;;3.59;80.59;101270.88;5034315;28;20048;-67
2021/01/13 11:27:11;;;;;;;27.45;11.90;;;;;;;3.58;81.47;101270.00;5034588;28;20075;-66
2021/01/13 11:29:40;;;;;;;20.17;9.70;;;;;;;3.72;81.20;101275.41;5037451;28;20060;-67
2021/01/13 11:32:12;;;;;;;28.98;9.98;;;;;;;3.83;79.95;101273.00;5035974;28;20060;-67
2021/01/13 11:34:38;;;;;;;18.10;9.27;;;;;;;3.85;79.11;101275.59;5036101;28;20063;-67
2021/01/13 11:37:40;;;;;;;25.48;9.02;;;;;;;3.85;79.45;101262.72;5029262;28;20049;-67
2021/01/13 11:40:22;;;;;;;24.83;10.05;;;;;;;3.69;79.70;101271.91;5034162;28;20049;-66
2021/01/13 11:43:33;;;;;;;20.98;9.57;;;;;;;3.81;80.21;101266.09;5029073;28;20045;-65
2021/01/13 11:46:11;;;;;;;21.13;9.55;;;;;;;3.77;80.30;101261.72;5038399;28;20416;-68
2021/01/13 11:49:03;;;;;;;24.98;10.50;;;;;;;3.93;79.79;101266.31;5025081;28;20057;-67